createdAt,value
2023-08-07T00:03:08.647Z,999.863
2023-08-07T00:23:07.768Z,999.865
2023-08-07T00:43:08.028Z,999.859
2023-08-07T01:03:09.396Z,999.917
2023-08-07T01:23:07.615Z,999.865
2023-08-07T01:43:07.602Z,999.885
2023-08-07T02:03:09.010Z,999.889
2023-08-07T02:23:08.294Z,999.972
2023-08-07T02:43:07.362Z,999.955
2023-08-07T03:03:08.216Z,999.919
2023-08-07T03:23:07.257Z,999.923
2023-08-07T03:43:07.386Z,999.96
2023-08-07T04:03:09.134Z,999.964
2023-08-07T04:23:07.217Z,1000.038
2023-08-07T04:43:07.882Z,1000.132
2023-08-07T05:03:09.863Z,1000.384
2023-08-07T05:23:08.202Z,1000.515
2023-08-07T05:43:07.358Z,1000.623
2023-08-07T06:03:08.577Z,1000.75
2023-08-07T06:23:07.578Z,1000.938
2023-08-07T06:43:07.668Z,1001.142
2023-08-07T07:03:08.781Z,1001.231
2023-08-07T07:23:07.917Z,1001.233
2023-08-07T07:43:08.209Z,1001.405
2023-08-07T08:03:08.565Z,1001.61
2023-08-07T08:23:07.702Z,1001.752
2023-08-07T08:43:07.980Z,1001.989
2023-08-07T09:03:09.265Z,1002.152
2023-08-07T09:23:07.452Z,1002.382
2023-08-07T09:43:07.743Z,1002.564
2023-08-07T10:03:08.941Z,1002.831
2023-08-07T10:23:08.222Z,1003.025
2023-08-07T10:43:07.411Z,1003.019
2023-08-07T11:03:08.531Z,1003.204
2023-08-07T11:23:07.632Z,1003.518
2023-08-07T11:43:07.968Z,1003.806
2023-08-07T12:03:09.123Z,1003.738
2023-08-07T12:23:07.454Z,1003.853
2023-08-07T12:43:07.707Z,1003.92
2023-08-07T13:03:08.947Z,1004.037
2023-08-07T13:23:08.572Z,1004.455
2023-08-07T13:43:07.951Z,1004.596
2023-08-07T14:03:09.350Z,1004.673
2023-08-07T14:23:22.799Z,1004.919
2023-08-07T14:43:08.081Z,1004.843
2023-08-07T15:03:08.669Z,1005.002
2023-08-07T15:23:07.791Z,1004.877
2023-08-07T15:43:08.074Z,1005.025
2023-08-07T16:03:09.205Z,1004.952
2023-08-07T16:23:07.518Z,1005.333
2023-08-07T16:43:08.058Z,1005.557
2023-08-07T17:03:09.423Z,1005.797
2023-08-07T17:23:07.751Z,1005.788
2023-08-07T17:43:08.199Z,1005.763
2023-08-07T18:03:08.542Z,1005.69
2023-08-07T18:23:07.793Z,1005.594
2023-08-07T18:43:08.133Z,1005.575
2023-08-07T19:03:08.731Z,1005.636
2023-08-07T19:23:07.904Z,1005.701
2023-08-07T19:43:07.453Z,1005.653
2023-08-07T20:03:08.841Z,1005.569
2023-08-07T20:23:07.965Z,1005.598
2023-08-07T20:43:07.361Z,1005.693
2023-08-07T21:03:08.977Z,1005.648
2023-08-07T21:23:07.222Z,1005.598
2023-08-07T21:43:07.555Z,1005.591
2023-08-07T22:03:08.628Z,1005.501
2023-08-07T22:23:07.746Z,1005.437
2023-08-07T22:43:12.866Z,1005.383
2023-08-07T23:03:08.739Z,1005.335
2023-08-07T23:23:07.874Z,1005.219
2023-08-07T23:43:08.238Z,1005.067
